sensor_id;sensor_type;location;lat;lon;timestamp;P1;durP1;ratioP1;P2;durP2;ratioP2
20348;SDS011;10332;50.208;18.988;2022-07-17T00:01:26;3.47;;;2.53;;
20348;SDS011;10332;50.208;18.988;2022-07-17T00:03:54;4.20;;;2.58;;
20348;SDS011;10332;50.208;18.988;2022-07-17T00:06:21;2.95;;;2.70;;
20348;SDS011;10332;50.208;18.988;2022-07-17T00:08:49;5.75;;;2.70;;
20348;SDS011;10332;50.208;18.988;2022-07-17T00:11:16;3.63;;;2.88;;
20348;SDS011;10332;50.208;18.988;2022-07-17T00:13:43;10.68;;;6.32;;
20348;SDS011;10332;50.208;18.988;2022-07-17T00:16:11;5.95;;;2.85;;
20348;SDS011;10332;50.208;18.988;2022-07-17T00:18:39;4.45;;;2.97;;
20348;SDS011;10332;50.208;18.988;2022-07-17T00:21:06;3.60;;;2.90;;
20348;SDS011;10332;50.208;18.988;2022-07-17T00:23:33;4.35;;;3.05;;
20348;SDS011;10332;50.208;18.988;2022-07-17T00:26:01;4.20;;;2.78;;
20348;SDS011;10332;50.208;18.988;2022-07-17T00:28:28;4.80;;;2.70;;
20348;SDS011;10332;50.208;18.988;2022-07-17T00:30:56;3.42;;;3.08;;
20348;SDS011;10332;50.208;18.988;2022-07-17T00:33:23;3.55;;;2.72;;
20348;SDS011;10332;50.208;18.988;2022-07-17T00:35:50;4.07;;;2.70;;
20348;SDS011;10332;50.208;18.988;2022-07-17T00:38:19;4.55;;;2.40;;
20348;SDS011;10332;50.208;18.988;2022-07-17T00:40:46;5.40;;;2.72;;
20348;SDS011;10332;50.208;18.988;2022-07-17T00:43:14;3.15;;;2.70;;
20348;SDS011;10332;50.208;18.988;2022-07-17T00:45:42;4.47;;;2.50;;
20348;SDS011;10332;50.208;18.988;2022-07-17T00:48:09;3.60;;;2.83;;
20348;SDS011;10332;50.208;18.988;2022-07-17T00:50:38;4.50;;;3.10;;
20348;SDS011;10332;50.208;18.988;2022-07-17T00:53:08;3.55;;;3.00;;
20348;SDS011;10332;50.208;18.988;2022-07-17T00:55:37;4.28;;;3.05;;
20348;SDS011;10332;50.208;18.988;2022-07-17T00:58:11;6.63;;;3.10;;
20348;SDS011;10332;50.208;18.988;2022-07-17T01:00:45;4.47;;;3.20;;
20348;SDS011;10332;50.208;18.988;2022-07-17T01:03:16;5.15;;;3.05;;
20348;SDS011;10332;50.208;18.988;2022-07-17T01:05:44;4.85;;;3.00;;
20348;SDS011;10332;50.208;18.988;2022-07-17T01:08:12;5.55;;;2.97;;
20348;SDS011;10332;50.208;18.988;2022-07-17T01:10:40;5.47;;;3.47;;
20348;SDS011;10332;50.208;18.988;2022-07-17T01:13:07;4.65;;;3.10;;
20348;SDS011;10332;50.208;18.988;2022-07-17T01:15:36;3.53;;;2.97;;
20348;SDS011;10332;50.208;18.988;2022-07-17T01:18:07;7.78;;;3.05;;
20348;SDS011;10332;50.208;18.988;2022-07-17T01:20:38;9.10;;;3.67;;
20348;SDS011;10332;50.208;18.988;2022-07-17T01:23:09;5.10;;;3.67;;
20348;SDS011;10332;50.208;18.988;2022-07-17T01:25:37;5.22;;;3.55;;
20348;SDS011;10332;50.208;18.988;2022-07-17T01:28:05;5.20;;;3.58;;
20348;SDS011;10332;50.208;18.988;2022-07-17T01:30:34;4.68;;;3.00;;
20348;SDS011;10332;50.208;18.988;2022-07-17T01:33:02;4.05;;;3.55;;
20348;SDS011;10332;50.208;18.988;2022-07-17T01:35:30;4.72;;;3.20;;
20348;SDS011;10332;50.208;18.988;2022-07-17T01:37:58;5.95;;;3.53;;
20348;SDS011;10332;50.208;18.988;2022-07-17T01:40:26;4.90;;;3.95;;
20348;SDS011;10332;50.208;18.988;2022-07-17T01:42:53;5.82;;;3.85;;
20348;SDS011;10332;50.208;18.988;2022-07-17T01:45:20;6.38;;;3.70;;
20348;SDS011;10332;50.208;18.988;2022-07-17T01:47:48;5.70;;;4.13;;
20348;SDS011;10332;50.208;18.988;2022-07-17T01:50:15;5.45;;;4.20;;
20348;SDS011;10332;50.208;18.988;2022-07-17T01:52:44;8.00;;;3.70;;
20348;SDS011;10332;50.208;18.988;2022-07-17T01:55:13;6.55;;;4.40;;
20348;SDS011;10332;50.208;18.988;2022-07-17T01:57:42;5.57;;;4.30;;
20348;SDS011;10332;50.208;18.988;2022-07-17T02:00:12;7.18;;;4.20;;
20348;SDS011;10332;50.208;18.988;2022-07-17T02:02:44;5.18;;;4.10;;
20348;SDS011;10332;50.208;18.988;2022-07-17T02:05:12;6.53;;;3.90;;
20348;SDS011;10332;50.208;18.988;2022-07-17T02:07:40;8.00;;;4.35;;
20348;SDS011;10332;50.208;18.988;2022-07-17T02:10:08;5.78;;;3.97;;
20348;SDS011;10332;50.208;18.988;2022-07-17T02:12:37;7.57;;;4.30;;
20348;SDS011;10332;50.208;18.988;2022-07-17T02:15:05;6.43;;;3.70;;
20348;SDS011;10332;50.208;18.988;2022-07-17T02:17:33;5.13;;;4.00;;
20348;SDS011;10332;50.208;18.988;2022-07-17T02:20:00;4.80;;;3.72;;
20348;SDS011;10332;50.208;18.988;2022-07-17T02:22:28;5.78;;;4.40;;
20348;SDS011;10332;50.208;18.988;2022-07-17T02:24:55;6.57;;;4.20;;
20348;SDS011;10332;50.208;18.988;2022-07-17T02:27:23;6.07;;;4.20;;
20348;SDS011;10332;50.208;18.988;2022-07-17T02:29:50;4.85;;;3.58;;
20348;SDS011;10332;50.208;18.988;2022-07-17T02:32:17;7.47;;;4.45;;
20348;SDS011;10332;50.208;18.988;2022-07-17T02:34:45;7.38;;;4.25;;
20348;SDS011;10332;50.208;18.988;2022-07-17T02:37:12;6.35;;;4.30;;
20348;SDS011;10332;50.208;18.988;2022-07-17T02:39:39;5.25;;;3.78;;
20348;SDS011;10332;50.208;18.988;2022-07-17T02:42:23;4.10;;;3.42;;
20348;SDS011;10332;50.208;18.988;2022-07-17T02:44:54;4.03;;;3.00;;
20348;SDS011;10332;50.208;18.988;2022-07-17T02:47:23;5.60;;;3.95;;
20348;SDS011;10332;50.208;18.988;2022-07-17T02:49:53;4.60;;;3.55;;
20348;SDS011;10332;50.208;18.988;2022-07-17T02:52:21;4.72;;;3.40;;
20348;SDS011;10332;50.208;18.988;2022-07-17T02:54:49;5.07;;;3.75;;
20348;SDS011;10332;50.208;18.988;2022-07-17T02:57:16;4.07;;;3.50;;
20348;SDS011;10332;50.208;18.988;2022-07-17T02:59:45;4.28;;;3.08;;
20348;SDS011;10332;50.208;18.988;2022-07-17T03:02:13;5.15;;;3.65;;
20348;SDS011;10332;50.208;18.988;2022-07-17T03:04:41;7.65;;;4.10;;
20348;SDS011;10332;50.208;18.988;2022-07-17T03:07:08;7.10;;;4.07;;
20348;SDS011;10332;50.208;18.988;2022-07-17T03:09:37;10.35;;;5.00;;
20348;SDS011;10332;50.208;18.988;2022-07-17T03:12:04;8.63;;;4.60;;
20348;SDS011;10332;50.208;18.988;2022-07-17T03:14:32;7.07;;;3.92;;
20348;SDS011;10332;50.208;18.988;2022-07-17T03:17:00;6.25;;;3.90;;
20348;SDS011;10332;50.208;18.988;2022-07-17T03:19:27;8.57;;;4.70;;
20348;SDS011;10332;50.208;18.988;2022-07-17T03:21:54;4.10;;;3.70;;
20348;SDS011;10332;50.208;18.988;2022-07-17T03:24:22;5.05;;;3.60;;
20348;SDS011;10332;50.208;18.988;2022-07-17T03:26:49;6.47;;;3.92;;
20348;SDS011;10332;50.208;18.988;2022-07-17T03:29:17;8.07;;;4.55;;
20348;SDS011;10332;50.208;18.988;2022-07-17T03:31:45;5.82;;;4.13;;
20348;SDS011;10332;50.208;18.988;2022-07-17T03:34:14;4.47;;;3.50;;
20348;SDS011;10332;50.208;18.988;2022-07-17T03:36:42;6.20;;;4.15;;
20348;SDS011;10332;50.208;18.988;2022-07-17T03:39:10;7.10;;;3.92;;
20348;SDS011;10332;50.208;18.988;2022-07-17T03:41:37;9.20;;;4.45;;
20348;SDS011;10332;50.208;18.988;2022-07-17T03:44:05;7.95;;;3.75;;
20348;SDS011;10332;50.208;18.988;2022-07-17T03:46:32;5.65;;;4.53;;
20348;SDS011;10332;50.208;18.988;2022-07-17T03:49:00;6.00;;;3.90;;
20348;SDS011;10332;50.208;18.988;2022-07-17T03:51:27;5.07;;;3.97;;
20348;SDS011;10332;50.208;18.988;2022-07-17T03:53:55;5.85;;;4.45;;
20348;SDS011;10332;50.208;18.988;2022-07-17T03:56:22;5.60;;;3.83;;
20348;SDS011;10332;50.208;18.988;2022-07-17T03:58:50;5.53;;;3.42;;
20348;SDS011;10332;50.208;18.988;2022-07-17T04:01:17;6.90;;;3.50;;
20348;SDS011;10332;50.208;18.988;2022-07-17T04:03:45;7.05;;;3.70;;
20348;SDS011;10332;50.208;18.988;2022-07-17T04:06:12;6.47;;;3.70;;
20348;SDS011;10332;50.208;18.988;2022-07-17T04:08:39;8.15;;;4.00;;
20348;SDS011;10332;50.208;18.988;2022-07-17T04:11:07;6.03;;;4.07;;
20348;SDS011;10332;50.208;18.988;2022-07-17T04:13:45;5.05;;;3.60;;
20348;SDS011;10332;50.208;18.988;2022-07-17T04:16:12;5.70;;;3.50;;
20348;SDS011;10332;50.208;18.988;2022-07-17T04:18:40;6.22;;;3.25;;
20348;SDS011;10332;50.208;18.988;2022-07-17T04:21:08;5.38;;;3.10;;
20348;SDS011;10332;50.208;18.988;2022-07-17T04:23:37;5.97;;;3.65;;
20348;SDS011;10332;50.208;18.988;2022-07-17T04:26:04;14.10;;;6.70;;
20348;SDS011;10332;50.208;18.988;2022-07-17T04:28:40;5.30;;;4.00;;
20348;SDS011;10332;50.208;18.988;2022-07-17T04:31:07;7.00;;;4.00;;
20348;SDS011;10332;50.208;18.988;2022-07-17T04:33:35;5.95;;;3.85;;
20348;SDS011;10332;50.208;18.988;2022-07-17T04:36:02;9.90;;;3.72;;
20348;SDS011;10332;50.208;18.988;2022-07-17T04:38:30;9.10;;;3.72;;
20348;SDS011;10332;50.208;18.988;2022-07-17T04:40:58;11.35;;;3.90;;
20348;SDS011;10332;50.208;18.988;2022-07-17T04:43:25;5.22;;;2.83;;
20348;SDS011;10332;50.208;18.988;2022-07-17T04:45:53;6.72;;;3.47;;
20348;SDS011;10332;50.208;18.988;2022-07-17T04:48:20;5.05;;;3.25;;
20348;SDS011;10332;50.208;18.988;2022-07-17T04:50:47;7.03;;;3.30;;
20348;SDS011;10332;50.208;18.988;2022-07-17T04:53:15;4.60;;;2.88;;
20348;SDS011;10332;50.208;18.988;2022-07-17T04:55:49;8.18;;;3.33;;
20348;SDS011;10332;50.208;18.988;2022-07-17T04:58:17;5.50;;;2.90;;
20348;SDS011;10332;50.208;18.988;2022-07-17T05:00:45;8.27;;;3.17;;
20348;SDS011;10332;50.208;18.988;2022-07-17T05:03:13;3.80;;;2.55;;
20348;SDS011;10332;50.208;18.988;2022-07-17T05:05:41;3.60;;;2.53;;
20348;SDS011;10332;50.208;18.988;2022-07-17T05:08:08;5.68;;;2.90;;
20348;SDS011;10332;50.208;18.988;2022-07-17T05:10:35;5.50;;;3.22;;
20348;SDS011;10332;50.208;18.988;2022-07-17T05:13:03;6.90;;;3.60;;
20348;SDS011;10332;50.208;18.988;2022-07-17T05:15:30;7.65;;;3.15;;
20348;SDS011;10332;50.208;18.988;2022-07-17T05:18:05;5.47;;;3.00;;
20348;SDS011;10332;50.208;18.988;2022-07-17T05:20:33;4.63;;;2.58;;
20348;SDS011;10332;50.208;18.988;2022-07-17T05:23:01;3.90;;;2.88;;
20348;SDS011;10332;50.208;18.988;2022-07-17T05:25:29;5.03;;;3.22;;
20348;SDS011;10332;50.208;18.988;2022-07-17T05:27:57;6.70;;;3.35;;
20348;SDS011;10332;50.208;18.988;2022-07-17T05:30:25;5.22;;;2.80;;
20348;SDS011;10332;50.208;18.988;2022-07-17T05:32:52;7.40;;;3.40;;
20348;SDS011;10332;50.208;18.988;2022-07-17T05:35:20;5.82;;;2.67;;
20348;SDS011;10332;50.208;18.988;2022-07-17T05:37:47;6.72;;;3.15;;
20348;SDS011;10332;50.208;18.988;2022-07-17T05:40:15;6.10;;;3.70;;
20348;SDS011;10332;50.208;18.988;2022-07-17T05:42:42;4.35;;;2.60;;
20348;SDS011;10332;50.208;18.988;2022-07-17T05:45:09;6.32;;;2.63;;
20348;SDS011;10332;50.208;18.988;2022-07-17T05:47:37;6.63;;;2.75;;
20348;SDS011;10332;50.208;18.988;2022-07-17T05:50:04;6.30;;;2.78;;
20348;SDS011;10332;50.208;18.988;2022-07-17T05:52:32;7.15;;;2.90;;
20348;SDS011;10332;50.208;18.988;2022-07-17T05:54:59;7.18;;;2.75;;
20348;SDS011;10332;50.208;18.988;2022-07-17T05:57:27;4.07;;;2.30;;
20348;SDS011;10332;50.208;18.988;2022-07-17T05:59:54;3.28;;;2.30;;
20348;SDS011;10332;50.208;18.988;2022-07-17T06:02:22;5.18;;;2.22;;
20348;SDS011;10332;50.208;18.988;2022-07-17T06:04:49;6.68;;;2.60;;
20348;SDS011;10332;50.208;18.988;2022-07-17T06:07:16;7.20;;;2.22;;
20348;SDS011;10332;50.208;18.988;2022-07-17T06:09:45;5.20;;;2.35;;
20348;SDS011;10332;50.208;18.988;2022-07-17T06:12:13;4.15;;;2.40;;
20348;SDS011;10332;50.208;18.988;2022-07-17T06:14:41;4.50;;;2.22;;
20348;SDS011;10332;50.208;18.988;2022-07-17T06:17:08;4.57;;;2.35;;
20348;SDS011;10332;50.208;18.988;2022-07-17T06:19:35;6.20;;;3.10;;
20348;SDS011;10332;50.208;18.988;2022-07-17T06:22:02;6.22;;;2.75;;
20348;SDS011;10332;50.208;18.988;2022-07-17T06:24:30;8.85;;;2.90;;
20348;SDS011;10332;50.208;18.988;2022-07-17T06:26:57;7.95;;;2.65;;
20348;SDS011;10332;50.208;18.988;2022-07-17T06:29:25;5.22;;;2.40;;
20348;SDS011;10332;50.208;18.988;2022-07-17T06:31:52;6.47;;;2.75;;
20348;SDS011;10332;50.208;18.988;2022-07-17T06:34:20;8.45;;;2.70;;
20348;SDS011;10332;50.208;18.988;2022-07-17T06:36:47;4.35;;;1.77;;
20348;SDS011;10332;50.208;18.988;2022-07-17T06:39:14;5.43;;;2.28;;
20348;SDS011;10332;50.208;18.988;2022-07-17T06:41:42;7.35;;;2.22;;
20348;SDS011;10332;50.208;18.988;2022-07-17T06:44:09;7.32;;;2.42;;
20348;SDS011;10332;50.208;18.988;2022-07-17T06:46:37;4.78;;;2.22;;
20348;SDS011;10332;50.208;18.988;2022-07-17T06:49:05;4.85;;;2.20;;
20348;SDS011;10332;50.208;18.988;2022-07-17T06:51:32;7.28;;;2.25;;
20348;SDS011;10332;50.208;18.988;2022-07-17T06:53:59;8.10;;;2.47;;
20348;SDS011;10332;50.208;18.988;2022-07-17T06:56:27;3.70;;;1.88;;
20348;SDS011;10332;50.208;18.988;2022-07-17T06:58:54;5.45;;;1.92;;
20348;SDS011;10332;50.208;18.988;2022-07-17T07:01:22;9.68;;;3.50;;
20348;SDS011;10332;50.208;18.988;2022-07-17T07:03:49;8.38;;;3.40;;
20348;SDS011;10332;50.208;18.988;2022-07-17T07:06:17;3.90;;;1.98;;
20348;SDS011;10332;50.208;18.988;2022-07-17T07:08:44;4.65;;;1.83;;
20348;SDS011;10332;50.208;18.988;2022-07-17T07:11:11;6.28;;;2.85;;
20348;SDS011;10332;50.208;18.988;2022-07-17T07:13:39;5.30;;;1.52;;
20348;SDS011;10332;50.208;18.988;2022-07-17T07:16:06;6.55;;;2.35;;
20348;SDS011;10332;50.208;18.988;2022-07-17T07:18:34;8.60;;;2.30;;
20348;SDS011;10332;50.208;18.988;2022-07-17T07:21:01;3.22;;;1.70;;
20348;SDS011;10332;50.208;18.988;2022-07-17T07:23:29;4.90;;;1.98;;
20348;SDS011;10332;50.208;18.988;2022-07-17T07:25:59;4.60;;;1.65;;
20348;SDS011;10332;50.208;18.988;2022-07-17T07:28:26;4.80;;;2.30;;
20348;SDS011;10332;50.208;18.988;2022-07-17T07:30:55;4.63;;;1.90;;
20348;SDS011;10332;50.208;18.988;2022-07-17T07:33:22;5.22;;;2.05;;
20348;SDS011;10332;50.208;18.988;2022-07-17T07:35:50;5.47;;;2.00;;
20348;SDS011;10332;50.208;18.988;2022-07-17T07:38:17;7.75;;;1.95;;
20348;SDS011;10332;50.208;18.988;2022-07-17T07:40:45;3.50;;;1.48;;
20348;SDS011;10332;50.208;18.988;2022-07-17T07:43:19;6.25;;;1.70;;
20348;SDS011;10332;50.208;18.988;2022-07-17T07:45:47;3.78;;;1.45;;
20348;SDS011;10332;50.208;18.988;2022-07-17T07:48:14;5.38;;;1.70;;
20348;SDS011;10332;50.208;18.988;2022-07-17T07:50:42;4.07;;;1.90;;
20348;SDS011;10332;50.208;18.988;2022-07-17T07:53:15;4.45;;;1.88;;
20348;SDS011;10332;50.208;18.988;2022-07-17T07:55:43;3.05;;;1.45;;
20348;SDS011;10332;50.208;18.988;2022-07-17T07:58:11;4.22;;;1.75;;
20348;SDS011;10332;50.208;18.988;2022-07-17T08:00:43;5.45;;;1.67;;
20348;SDS011;10332;50.208;18.988;2022-07-17T08:03:11;3.95;;;1.70;;
20348;SDS011;10332;50.208;18.988;2022-07-17T08:05:39;4.35;;;1.90;;
20348;SDS011;10332;50.208;18.988;2022-07-17T08:08:07;3.10;;;1.40;;
20348;SDS011;10332;50.208;18.988;2022-07-17T08:10:35;4.72;;;1.80;;
20348;SDS011;10332;50.208;18.988;2022-07-17T08:13:03;3.42;;;1.85;;
20348;SDS011;10332;50.208;18.988;2022-07-17T08:15:30;4.80;;;1.90;;
20348;SDS011;10332;50.208;18.988;2022-07-17T08:17:58;3.83;;;1.60;;
20348;SDS011;10332;50.208;18.988;2022-07-17T08:20:26;3.78;;;1.40;;
20348;SDS011;10332;50.208;18.988;2022-07-17T08:22:54;2.65;;;1.50;;
20348;SDS011;10332;50.208;18.988;2022-07-17T08:25:31;3.35;;;1.30;;
20348;SDS011;10332;50.208;18.988;2022-07-17T08:28:03;4.68;;;1.92;;
20348;SDS011;10332;50.208;18.988;2022-07-17T08:30:32;2.95;;;1.00;;
20348;SDS011;10332;50.208;18.988;2022-07-17T08:33:02;1.83;;;1.15;;
20348;SDS011;10332;50.208;18.988;2022-07-17T08:35:32;2.58;;;1.27;;
20348;SDS011;10332;50.208;18.988;2022-07-17T08:38:01;2.85;;;1.42;;
20348;SDS011;10332;50.208;18.988;2022-07-17T08:40:31;2.17;;;1.10;;
20348;SDS011;10332;50.208;18.988;2022-07-17T08:43:02;4.80;;;1.17;;
20348;SDS011;10332;50.208;18.988;2022-07-17T08:45:32;4.55;;;1.15;;
20348;SDS011;10332;50.208;18.988;2022-07-17T08:48:07;2.47;;;1.10;;
20348;SDS011;10332;50.208;18.988;2022-07-17T08:50:44;4.57;;;1.13;;
20348;SDS011;10332;50.208;18.988;2022-07-17T08:53:13;2.00;;;0.82;;
20348;SDS011;10332;50.208;18.988;2022-07-17T08:55:40;4.55;;;1.20;;
20348;SDS011;10332;50.208;18.988;2022-07-17T08:58:08;2.17;;;1.20;;
20348;SDS011;10332;50.208;18.988;2022-07-17T09:00:41;5.15;;;1.80;;
20348;SDS011;10332;50.208;18.988;2022-07-17T09:03:09;5.13;;;2.58;;
20348;SDS011;10332;50.208;18.988;2022-07-17T09:05:37;5.07;;;2.22;;
20348;SDS011;10332;50.208;18.988;2022-07-17T09:08:07;3.83;;;1.60;;
20348;SDS011;10332;50.208;18.988;2022-07-17T09:10:47;3.42;;;1.38;;
20348;SDS011;10332;50.208;18.988;2022-07-17T09:13:27;5.03;;;3.03;;
20348;SDS011;10332;50.208;18.988;2022-07-17T09:16:09;3.95;;;1.70;;
20348;SDS011;10332;50.208;18.988;2022-07-17T09:18:43;6.00;;;2.97;;
20348;SDS011;10332;50.208;18.988;2022-07-17T09:21:18;1.73;;;0.60;;
20348;SDS011;10332;50.208;18.988;2022-07-17T09:26:26;2.75;;;0.80;;
20348;SDS011;10332;50.208;18.988;2022-07-17T09:28:56;2.53;;;1.00;;
20348;SDS011;10332;50.208;18.988;2022-07-17T09:31:24;3.95;;;2.40;;
20348;SDS011;10332;50.208;18.988;2022-07-17T09:33:59;3.55;;;1.20;;
20348;SDS011;10332;50.208;18.988;2022-07-17T09:36:27;2.25;;;0.90;;
20348;SDS011;10332;50.208;18.988;2022-07-17T09:38:56;2.50;;;1.13;;
20348;SDS011;10332;50.208;18.988;2022-07-17T09:41:25;1.02;;;0.52;;
20348;SDS011;10332;50.208;18.988;2022-07-17T09:44:00;2.58;;;1.10;;
20348;SDS011;10332;50.208;18.988;2022-07-17T09:46:30;11.38;;;3.42;;
20348;SDS011;10332;50.208;18.988;2022-07-17T09:49:05;3.55;;;1.60;;
20348;SDS011;10332;50.208;18.988;2022-07-17T09:51:35;3.88;;;1.73;;
20348;SDS011;10332;50.208;18.988;2022-07-17T09:54:07;3.53;;;2.30;;
20348;SDS011;10332;50.208;18.988;2022-07-17T09:56:38;3.05;;;1.88;;
20348;SDS011;10332;50.208;18.988;2022-07-17T09:59:10;3.03;;;0.82;;
20348;SDS011;10332;50.208;18.988;2022-07-17T10:01:40;2.05;;;1.40;;
20348;SDS011;10332;50.208;18.988;2022-07-17T10:04:10;1.95;;;0.80;;
20348;SDS011;10332;50.208;18.988;2022-07-17T10:06:38;2.42;;;0.80;;
20348;SDS011;10332;50.208;18.988;2022-07-17T10:09:06;2.38;;;0.60;;
20348;SDS011;10332;50.208;18.988;2022-07-17T10:11:35;3.35;;;0.80;;
20348;SDS011;10332;50.208;18.988;2022-07-17T10:14:13;1.50;;;0.93;;
20348;SDS011;10332;50.208;18.988;2022-07-17T10:16:43;4.43;;;1.48;;
20348;SDS011;10332;50.208;18.988;2022-07-17T10:19:16;2.90;;;1.15;;
20348;SDS011;10332;50.208;18.988;2022-07-17T10:24:23;1.98;;;0.50;;
20348;SDS011;10332;50.208;18.988;2022-07-17T10:26:53;1.75;;;1.17;;
20348;SDS011;10332;50.208;18.988;2022-07-17T10:29:28;3.35;;;1.35;;
20348;SDS011;10332;50.208;18.988;2022-07-17T10:31:58;1.90;;;0.75;;
20348;SDS011;10332;50.208;18.988;2022-07-17T10:34:40;1.85;;;0.75;;
20348;SDS011;10332;50.208;18.988;2022-07-17T10:37:32;3.50;;;1.00;;
20348;SDS011;10332;50.208;18.988;2022-07-17T10:40:18;1.65;;;0.70;;
20348;SDS011;10332;50.208;18.988;2022-07-17T10:45:39;2.15;;;0.77;;
20348;SDS011;10332;50.208;18.988;2022-07-17T10:48:10;2.83;;;0.70;;
20348;SDS011;10332;50.208;18.988;2022-07-17T10:50:42;0.98;;;0.60;;
20348;SDS011;10332;50.208;18.988;2022-07-17T10:53:23;2.25;;;0.60;;
20348;SDS011;10332;50.208;18.988;2022-07-17T10:56:04;2.47;;;0.90;;
20348;SDS011;10332;50.208;18.988;2022-07-17T10:58:35;2.42;;;0.70;;
20348;SDS011;10332;50.208;18.988;2022-07-17T11:01:09;3.05;;;0.57;;
20348;SDS011;10332;50.208;18.988;2022-07-17T11:03:52;2.97;;;0.82;;
20348;SDS011;10332;50.208;18.988;2022-07-17T11:06:23;1.75;;;0.63;;
20348;SDS011;10332;50.208;18.988;2022-07-17T11:08:59;2.08;;;0.70;;
20348;SDS011;10332;50.208;18.988;2022-07-17T11:14:19;3.05;;;1.10;;
20348;SDS011;10332;50.208;18.988;2022-07-17T11:16:58;2.95;;;0.80;;
20348;SDS011;10332;50.208;18.988;2022-07-17T11:19:29;2.42;;;0.70;;
20348;SDS011;10332;50.208;18.988;2022-07-17T11:22:06;2.40;;;0.65;;
20348;SDS011;10332;50.208;18.988;2022-07-17T11:24:38;1.13;;;0.50;;
20348;SDS011;10332;50.208;18.988;2022-07-17T11:27:21;2.03;;;1.17;;
20348;SDS011;10332;50.208;18.988;2022-07-17T11:29:52;2.90;;;1.83;;
20348;SDS011;10332;50.208;18.988;2022-07-17T11:32:24;1.60;;;0.90;;
20348;SDS011;10332;50.208;18.988;2022-07-17T11:35:00;3.22;;;1.50;;
20348;SDS011;10332;50.208;18.988;2022-07-17T11:37:48;1.90;;;1.08;;
20348;SDS011;10332;50.208;18.988;2022-07-17T11:40:16;3.65;;;1.10;;
20348;SDS011;10332;50.208;18.988;2022-07-17T11:42:44;2.65;;;1.30;;
20348;SDS011;10332;50.208;18.988;2022-07-17T11:45:12;2.30;;;1.00;;
20348;SDS011;10332;50.208;18.988;2022-07-17T11:47:40;1.52;;;0.68;;
20348;SDS011;10332;50.208;18.988;2022-07-17T11:50:10;1.92;;;0.90;;
20348;SDS011;10332;50.208;18.988;2022-07-17T11:52:41;2.53;;;0.70;;
20348;SDS011;10332;50.208;18.988;2022-07-17T11:55:18;3.15;;;0.90;;
20348;SDS011;10332;50.208;18.988;2022-07-17T11:57:46;1.77;;;0.60;;
20348;SDS011;10332;50.208;18.988;2022-07-17T12:00:17;1.88;;;0.60;;
20348;SDS011;10332;50.208;18.988;2022-07-17T12:02:57;3.50;;;1.10;;
20348;SDS011;10332;50.208;18.988;2022-07-17T12:05:29;0.70;;;0.47;;
20348;SDS011;10332;50.208;18.988;2022-07-17T12:08:01;2.10;;;0.90;;
20348;SDS011;10332;50.208;18.988;2022-07-17T12:10:33;2.58;;;0.80;;
20348;SDS011;10332;50.208;18.988;2022-07-17T12:13:02;2.83;;;0.82;;
20348;SDS011;10332;50.208;18.988;2022-07-17T12:15:48;2.33;;;0.50;;
20348;SDS011;10332;50.208;18.988;2022-07-17T12:18:24;3.53;;;0.70;;
20348;SDS011;10332;50.208;18.988;2022-07-17T12:20:56;7.25;;;2.13;;
20348;SDS011;10332;50.208;18.988;2022-07-17T12:23:32;1.48;;;0.95;;
20348;SDS011;10332;50.208;18.988;2022-07-17T12:26:04;1.52;;;0.50;;
20348;SDS011;10332;50.208;18.988;2022-07-17T12:28:45;2.88;;;1.10;;
20348;SDS011;10332;50.208;18.988;2022-07-17T12:31:13;2.38;;;0.85;;
20348;SDS011;10332;50.208;18.988;2022-07-17T12:33:43;4.03;;;0.98;;
20348;SDS011;10332;50.208;18.988;2022-07-17T12:36:10;3.58;;;1.00;;
20348;SDS011;10332;50.208;18.988;2022-07-17T12:38:38;2.03;;;0.93;;
20348;SDS011;10332;50.208;18.988;2022-07-17T12:41:05;5.22;;;1.20;;
20348;SDS011;10332;50.208;18.988;2022-07-17T12:43:33;2.03;;;0.73;;
20348;SDS011;10332;50.208;18.988;2022-07-17T12:46:00;3.63;;;1.38;;
20348;SDS011;10332;50.208;18.988;2022-07-17T12:48:37;2.40;;;0.90;;
20348;SDS011;10332;50.208;18.988;2022-07-17T12:51:10;4.07;;;1.00;;
20348;SDS011;10332;50.208;18.988;2022-07-17T12:53:41;2.35;;;1.02;;
20348;SDS011;10332;50.208;18.988;2022-07-17T12:56:10;1.98;;;1.00;;
20348;SDS011;10332;50.208;18.988;2022-07-17T12:58:38;2.35;;;0.88;;
20348;SDS011;10332;50.208;18.988;2022-07-17T13:01:06;2.50;;;0.80;;
20348;SDS011;10332;50.208;18.988;2022-07-17T13:03:34;3.55;;;0.90;;
20348;SDS011;10332;50.208;18.988;2022-07-17T13:06:03;1.42;;;0.63;;
20348;SDS011;10332;50.208;18.988;2022-07-17T13:08:30;2.70;;;0.80;;
20348;SDS011;10332;50.208;18.988;2022-07-17T13:10:58;1.52;;;0.60;;
20348;SDS011;10332;50.208;18.988;2022-07-17T13:13:27;1.10;;;0.80;;
20348;SDS011;10332;50.208;18.988;2022-07-17T13:15:56;3.40;;;1.70;;
20348;SDS011;10332;50.208;18.988;2022-07-17T13:18:24;2.28;;;0.50;;
20348;SDS011;10332;50.208;18.988;2022-07-17T13:20:51;1.30;;;0.70;;
20348;SDS011;10332;50.208;18.988;2022-07-17T13:23:27;1.63;;;0.85;;
20348;SDS011;10332;50.208;18.988;2022-07-17T13:25:54;4.47;;;1.02;;
20348;SDS011;10332;50.208;18.988;2022-07-17T13:28:22;2.95;;;0.80;;
20348;SDS011;10332;50.208;18.988;2022-07-17T13:30:49;1.73;;;0.93;;
20348;SDS011;10332;50.208;18.988;2022-07-17T13:33:17;2.05;;;0.73;;
20348;SDS011;10332;50.208;18.988;2022-07-17T13:35:44;2.22;;;0.52;;
20348;SDS011;10332;50.208;18.988;2022-07-17T13:38:12;3.22;;;0.90;;
20348;SDS011;10332;50.208;18.988;2022-07-17T13:40:39;1.85;;;0.73;;
20348;SDS011;10332;50.208;18.988;2022-07-17T13:43:07;4.38;;;1.40;;
20348;SDS011;10332;50.208;18.988;2022-07-17T13:45:35;3.25;;;0.95;;
20348;SDS011;10332;50.208;18.988;2022-07-17T13:48:03;0.95;;;0.50;;
20348;SDS011;10332;50.208;18.988;2022-07-17T13:50:31;1.63;;;0.50;;
20348;SDS011;10332;50.208;18.988;2022-07-17T13:52:59;1.77;;;0.50;;
20348;SDS011;10332;50.208;18.988;2022-07-17T13:55:28;1.70;;;0.82;;
20348;SDS011;10332;50.208;18.988;2022-07-17T13:58:08;0.63;;;0.43;;
20348;SDS011;10332;50.208;18.988;2022-07-17T14:00:36;1.63;;;0.40;;
20348;SDS011;10332;50.208;18.988;2022-07-17T14:03:04;2.17;;;0.50;;
20348;SDS011;10332;50.208;18.988;2022-07-17T14:05:32;1.70;;;0.70;;
20348;SDS011;10332;50.208;18.988;2022-07-17T14:07:59;1.63;;;0.57;;
20348;SDS011;10332;50.208;18.988;2022-07-17T14:10:26;1.83;;;0.57;;
20348;SDS011;10332;50.208;18.988;2022-07-17T14:12:54;1.15;;;0.50;;
20348;SDS011;10332;50.208;18.988;2022-07-17T14:15:21;2.53;;;0.65;;
20348;SDS011;10332;50.208;18.988;2022-07-17T14:17:48;2.42;;;0.60;;
20348;SDS011;10332;50.208;18.988;2022-07-17T14:20:16;0.98;;;0.60;;
20348;SDS011;10332;50.208;18.988;2022-07-17T14:22:43;3.22;;;0.70;;
20348;SDS011;10332;50.208;18.988;2022-07-17T14:25:11;1.42;;;0.63;;
20348;SDS011;10332;50.208;18.988;2022-07-17T14:27:38;1.73;;;1.13;;
20348;SDS011;10332;50.208;18.988;2022-07-17T14:30:06;1.30;;;0.60;;
20348;SDS011;10332;50.208;18.988;2022-07-17T14:32:34;1.92;;;0.70;;
20348;SDS011;10332;50.208;18.988;2022-07-17T14:35:01;1.88;;;0.60;;
20348;SDS011;10332;50.208;18.988;2022-07-17T14:37:30;2.25;;;1.23;;
20348;SDS011;10332;50.208;18.988;2022-07-17T14:39:58;1.42;;;1.00;;
20348;SDS011;10332;50.208;18.988;2022-07-17T14:42:26;1.67;;;0.60;;
20348;SDS011;10332;50.208;18.988;2022-07-17T14:44:54;1.52;;;0.68;;
20348;SDS011;10332;50.208;18.988;2022-07-17T14:47:21;1.17;;;0.57;;
20348;SDS011;10332;50.208;18.988;2022-07-17T14:49:48;1.42;;;0.70;;
20348;SDS011;10332;50.208;18.988;2022-07-17T14:52:16;3.75;;;2.80;;
20348;SDS011;10332;50.208;18.988;2022-07-17T14:54:43;6.50;;;4.55;;
20348;SDS011;10332;50.208;18.988;2022-07-17T14:57:11;1.65;;;1.20;;